createdAt,value
2016-10-07T00:00:18.828Z,0
2016-10-07T00:01:01.418Z,0
2016-10-07T00:01:43.973Z,0
2016-10-07T00:02:26.525Z,0
2016-10-07T00:03:09.102Z,0
2016-10-07T00:03:51.680Z,0
2016-10-07T00:04:34.250Z,0
2016-10-07T00:05:16.804Z,0
2016-10-07T00:05:59.316Z,0
2016-10-07T00:06:41.875Z,0
2016-10-07T00:07:24.444Z,0
2016-10-07T00:08:06.988Z,0
2016-10-07T00:08:49.540Z,0
2016-10-07T00:09:32.136Z,0
2016-10-07T00:10:14.684Z,0
2016-10-07T00:10:57.175Z,0
2016-10-07T00:11:42.440Z,0
2016-10-07T00:12:24.774Z,0
2016-10-07T00:13:08.197Z,0
2016-10-07T00:13:50.724Z,0
2016-10-07T00:14:33.184Z,0
2016-10-07T00:15:15.797Z,0
2016-10-07T00:15:58.276Z,0
2016-10-07T00:16:40.922Z,0
2016-10-07T00:17:23.581Z,0
2016-10-07T00:18:06.090Z,0
2016-10-07T00:18:49.039Z,0
2016-10-07T00:19:31.540Z,0
2016-10-07T00:20:14.069Z,0
2016-10-07T00:20:56.605Z,0
2016-10-07T00:21:39.183Z,0
2016-10-07T00:22:21.741Z,0
2016-10-07T00:23:04.259Z,0
2016-10-07T00:23:46.750Z,0
2016-10-07T00:24:29.265Z,0
2016-10-07T00:25:11.778Z,0
2016-10-07T00:25:54.146Z,0
2016-10-07T00:26:36.913Z,0
2016-10-07T00:27:19.451Z,0
2016-10-07T00:28:01.959Z,0
2016-10-07T00:28:44.448Z,0
2016-10-07T00:29:27.067Z,0
2016-10-07T00:30:09.687Z,0
2016-10-07T00:30:52.233Z,0
2016-10-07T00:31:34.754Z,0
2016-10-07T00:32:17.315Z,0
2016-10-07T00:32:59.852Z,0
2016-10-07T00:33:42.320Z,0
2016-10-07T00:34:24.724Z,0
2016-10-07T00:35:07.445Z,0
2016-10-07T00:35:50.022Z,0
2016-10-07T00:36:32.626Z,0
2016-10-07T00:37:15.170Z,0
2016-10-07T00:37:57.718Z,0
2016-10-07T00:38:40.272Z,0
2016-10-07T00:39:22.880Z,0
2016-10-07T00:40:05.481Z,0
2016-10-07T00:40:48.059Z,0
2016-10-07T00:41:30.611Z,0
2016-10-07T00:42:13.143Z,0
2016-10-07T00:42:55.680Z,0
2016-10-07T00:43:38.094Z,0
2016-10-07T00:44:20.786Z,0
2016-10-07T00:45:03.359Z,0
2016-10-07T00:45:45.864Z,0
2016-10-07T00:46:28.420Z,0
2016-10-07T00:47:10.969Z,0
2016-10-07T00:47:53.451Z,0
2016-10-07T00:48:36.055Z,0
2016-10-07T00:49:18.627Z,0
2016-10-07T00:50:01.122Z,0
2016-10-07T00:50:43.702Z,0
2016-10-07T00:51:26.220Z,0
2016-10-07T00:52:08.775Z,0
2016-10-07T00:52:51.340Z,0
2016-10-07T00:53:33.933Z,0
2016-10-07T00:54:16.486Z,0
2016-10-07T00:54:59.008Z,0
2016-10-07T00:55:41.563Z,0
2016-10-07T00:56:24.073Z,0
2016-10-07T00:57:06.656Z,0
2016-10-07T00:57:49.229Z,0
2016-10-07T00:58:31.771Z,0
2016-10-07T00:59:14.351Z,0
2016-10-07T00:59:56.853Z,0
2016-10-07T01:00:39.240Z,0
2016-10-07T01:01:21.977Z,0
2016-10-07T01:02:04.499Z,0
2016-10-07T01:02:47.089Z,0
2016-10-07T01:03:29.644Z,0
2016-10-07T01:04:12.199Z,0
2016-10-07T01:04:54.745Z,0
2016-10-07T01:05:37.359Z,0
2016-10-07T01:06:19.908Z,0
2016-10-07T01:07:02.473Z,0
2016-10-07T01:07:45.018Z,0
2016-10-07T01:08:27.583Z,0
2016-10-07T01:09:10.157Z,0
2016-10-07T01:09:52.669Z,0
2016-10-07T01:10:35.229Z,0
2016-10-07T01:11:17.753Z,0
2016-10-07T01:12:00.341Z,0
2016-10-07T01:12:42.904Z,0
2016-10-07T01:13:25.461Z,0
2016-10-07T01:14:08.016Z,0
2016-10-07T01:14:50.524Z,0
2016-10-07T01:15:33.121Z,0
2016-10-07T01:16:15.677Z,0
2016-10-07T01:16:58.195Z,0
2016-10-07T01:17:40.805Z,0
2016-10-07T01:18:23.326Z,0
2016-10-07T01:19:05.873Z,0
2016-10-07T01:19:48.410Z,0
2016-10-07T01:20:30.970Z,0
2016-10-07T01:21:13.580Z,0
2016-10-07T01:21:56.100Z,0
2016-10-07T01:22:38.625Z,0
2016-10-07T01:23:21.221Z,0
2016-10-07T01:24:03.730Z,0
2016-10-07T01:24:46.287Z,0
2016-10-07T01:25:28.885Z,0
2016-10-07T01:26:11.377Z,0
2016-10-07T01:26:53.922Z,0
2016-10-07T01:27:36.457Z,0
2016-10-07T01:28:19.034Z,0
2016-10-07T01:29:01.585Z,0
2016-10-07T01:29:44.135Z,0
2016-10-07T01:30:26.679Z,0
2016-10-07T01:31:09.207Z,0
2016-10-07T01:31:51.783Z,0
2016-10-07T01:32:34.362Z,0
2016-10-07T01:33:16.891Z,0
2016-10-07T01:33:59.219Z,0
2016-10-07T01:34:41.909Z,0
2016-10-07T01:35:24.482Z,0
2016-10-07T01:36:07.015Z,0
2016-10-07T01:36:49.562Z,0
2016-10-07T01:37:32.050Z,0
2016-10-07T01:38:14.667Z,0
2016-10-07T01:38:57.102Z,0
2016-10-07T01:39:39.711Z,0
2016-10-07T01:40:22.095Z,0
2016-10-07T01:41:04.864Z,0
2016-10-07T01:41:47.189Z,0
2016-10-07T01:42:29.920Z,0
2016-10-07T01:43:12.543Z,0
2016-10-07T01:43:55.185Z,0
2016-10-07T01:44:37.800Z,0
2016-10-07T01:45:20.339Z,0
2016-10-07T01:46:02.910Z,0
2016-10-07T01:46:45.473Z,0
2016-10-07T01:47:28.064Z,0
2016-10-07T01:48:10.580Z,0
2016-10-07T01:48:53.132Z,0
2016-10-07T01:49:35.659Z,0
2016-10-07T01:50:18.191Z,0
2016-10-07T01:51:00.665Z,0
2016-10-07T01:51:43.300Z,0
2016-10-07T01:52:25.844Z,0
2016-10-07T01:53:08.358Z,0
2016-10-07T01:53:52.915Z,0
2016-10-07T01:54:35.431Z,0
2016-10-07T01:55:18.041Z,0
2016-10-07T01:56:00.553Z,0
2016-10-07T01:56:43.163Z,0
2016-10-07T01:57:25.728Z,0
2016-10-07T01:58:08.194Z,0
2016-10-07T01:58:50.882Z,0
2016-10-07T01:59:33.391Z,0
2016-10-07T02:00:15.940Z,0
2016-10-07T02:00:58.458Z,0
2016-10-07T02:01:41.053Z,0
2016-10-07T02:02:23.667Z,0
2016-10-07T02:03:06.178Z,0
2016-10-07T02:03:48.779Z,0
2016-10-07T02:04:31.345Z,0
2016-10-07T02:05:13.893Z,0
2016-10-07T02:05:56.489Z,0
2016-10-07T02:06:39.075Z,0
2016-10-07T02:07:21.641Z,0
2016-10-07T02:08:04.205Z,0
2016-10-07T02:08:49.439Z,0
2016-10-07T02:09:32.009Z,0
2016-10-07T02:10:14.554Z,0
2016-10-07T02:10:57.153Z,0
2016-10-07T02:11:39.519Z,0
2016-10-07T02:12:25.026Z,0
2016-10-07T02:13:07.558Z,0
2016-10-07T02:13:49.968Z,0
2016-10-07T02:14:32.691Z,0
2016-10-07T02:15:15.254Z,0
2016-10-07T02:15:57.778Z,0
2016-10-07T02:16:40.322Z,0
2016-10-07T02:17:22.853Z,0
2016-10-07T02:18:05.401Z,0
2016-10-07T02:18:48.014Z,0
2016-10-07T02:19:30.532Z,0
2016-10-07T02:20:13.174Z,0
2016-10-07T02:20:55.724Z,0
2016-10-07T02:21:38.362Z,0
2016-10-07T02:22:22.491Z,0
2016-10-07T02:23:05.058Z,0
2016-10-07T02:23:47.631Z,0
2016-10-07T02:24:30.155Z,0
2016-10-07T02:25:12.708Z,0
2016-10-07T02:25:55.251Z,0
2016-10-07T02:26:37.780Z,0
2016-10-07T02:27:20.350Z,0
2016-10-07T02:28:02.908Z,0
2016-10-07T02:28:45.425Z,0
2016-10-07T02:29:27.944Z,0
2016-10-07T02:30:10.601Z,0
2016-10-07T02:30:53.113Z,0
2016-10-07T02:31:35.679Z,0
2016-10-07T02:32:18.221Z,0
2016-10-07T02:33:00.763Z,0
2016-10-07T02:33:43.357Z,0
2016-10-07T02:34:25.926Z,0
2016-10-07T02:35:08.454Z,0
2016-10-07T02:35:50.935Z,0
2016-10-07T02:36:33.566Z,0
2016-10-07T02:37:16.086Z,0
2016-10-07T02:37:58.639Z,0
2016-10-07T02:38:41.273Z,0
2016-10-07T02:39:23.830Z,0
2016-10-07T02:40:06.457Z,0
2016-10-07T02:40:48.985Z,0
2016-10-07T02:41:31.423Z,0
2016-10-07T02:42:14.028Z,0
2016-10-07T02:42:56.419Z,0
2016-10-07T02:43:39.162Z,0
2016-10-07T02:44:21.703Z,0
2016-10-07T02:45:04.219Z,0
2016-10-07T02:45:46.737Z,0
2016-10-07T02:46:29.281Z,0
2016-10-07T02:47:11.836Z,0
2016-10-07T02:47:54.407Z,0
2016-10-07T02:48:36.964Z,0
2016-10-07T02:49:19.977Z,0
2016-10-07T02:50:01.989Z,0
2016-10-07T02:50:44.547Z,0
2016-10-07T02:51:27.129Z,0
2016-10-07T02:52:09.675Z,0
2016-10-07T02:52:52.212Z,0
2016-10-07T02:53:34.757Z,0
2016-10-07T02:54:17.304Z,0
2016-10-07T02:54:59.677Z,0
2016-10-07T02:55:42.427Z,0
2016-10-07T02:56:25.052Z,0
2016-10-07T02:57:07.607Z,0
2016-10-07T02:57:50.183Z,0
2016-10-07T02:58:32.713Z,0
2016-10-07T02:59:15.287Z,0
2016-10-07T02:59:57.791Z,0
2016-10-07T03:00:40.377Z,0
2016-10-07T03:01:22.968Z,0
2016-10-07T03:02:05.569Z,0
2016-10-07T03:02:48.083Z,0
2016-10-07T03:03:30.642Z,0
2016-10-07T03:04:13.178Z,0
2016-10-07T03:04:55.764Z,0
2016-10-07T03:06:20.813Z,0
2016-10-07T03:07:03.406Z,0
2016-10-07T03:07:45.963Z,0
2016-10-07T03:08:28.510Z,0
2016-10-07T03:09:11.056Z,0
2016-10-07T03:09:53.626Z,0
2016-10-07T03:10:36.194Z,0
2016-10-07T03:11:18.737Z,0
2016-10-07T03:12:01.323Z,0
2016-10-07T03:12:43.934Z,0
2016-10-07T03:13:26.488Z,0
2016-10-07T03:14:11.634Z,0
2016-10-07T03:14:54.191Z,0
2016-10-07T03:15:39.987Z,0
2016-10-07T03:16:22.549Z,0
2016-10-07T03:17:05.375Z,0
2016-10-07T03:17:47.918Z,0
2016-10-07T03:18:30.501Z,0
2016-10-07T03:19:13.047Z,0
2016-10-07T03:19:55.625Z,0
2016-10-07T03:20:38.201Z,0
2016-10-07T03:21:20.735Z,0
2016-10-07T03:22:03.291Z,0
2016-10-07T03:22:45.902Z,0
2016-10-07T03:23:28.462Z,0
2016-10-07T03:24:11.007Z,0
2016-10-07T03:24:53.654Z,0
2016-10-07T03:25:36.196Z,0
2016-10-07T03:26:18.605Z,0
2016-10-07T03:27:01.298Z,0
2016-10-07T03:27:43.830Z,0
2016-10-07T03:28:26.371Z,0
2016-10-07T03:29:08.938Z,0
2016-10-07T03:29:51.481Z,0
2016-10-07T03:30:34.077Z,0
2016-10-07T03:31:16.657Z,0
2016-10-07T03:31:59.190Z,0
2016-10-07T03:32:41.777Z,0
2016-10-07T03:33:24.294Z,0
2016-10-07T03:34:06.907Z,0
2016-10-07T03:34:49.457Z,0
2016-10-07T03:35:32.071Z,0
2016-10-07T03:36:14.617Z,0
2016-10-07T03:36:57.198Z,0
2016-10-07T03:37:39.768Z,0
2016-10-07T03:38:22.345Z,0
2016-10-07T03:39:04.959Z,0
2016-10-07T03:39:47.535Z,0
2016-10-07T03:40:30.095Z,0
2016-10-07T03:41:12.648Z,0
2016-10-07T03:41:55.297Z,0
2016-10-07T03:42:37.857Z,0
2016-10-07T03:43:20.453Z,0
2016-10-07T03:44:03.043Z,0
2016-10-07T03:44:45.597Z,0
2016-10-07T03:45:28.234Z,0
2016-10-07T03:46:10.766Z,0
2016-10-07T03:46:53.393Z,0
2016-10-07T03:47:36.128Z,0
2016-10-07T03:48:18.704Z,0
2016-10-07T03:49:01.309Z,0
2016-10-07T03:49:43.875Z,0
2016-10-07T03:50:26.458Z,0
2016-10-07T03:51:09.029Z,0
2016-10-07T03:51:51.579Z,0
2016-10-07T03:52:34.097Z,0
2016-10-07T03:53:16.692Z,0
2016-10-07T03:53:59.228Z,0
2016-10-07T03:54:41.797Z,0
2016-10-07T03:55:24.410Z,0
2016-10-07T03:56:06.955Z,0
2016-10-07T03:56:49.542Z,0
2016-10-07T03:57:32.099Z,0
2016-10-07T03:58:14.732Z,0
2016-10-07T03:58:57.327Z,0
2016-10-07T03:59:39.935Z,0
2016-10-07T04:00:22.488Z,0
2016-10-07T04:01:05.016Z,0
2016-10-07T04:01:47.522Z,0
2016-10-07T04:02:30.217Z,0
2016-10-07T04:03:12.753Z,0
2016-10-07T04:03:55.277Z,0
2016-10-07T04:04:37.816Z,0
2016-10-07T04:05:20.318Z,0
2016-10-07T04:06:02.896Z,0
2016-10-07T04:06:45.400Z,0
2016-10-07T04:07:27.983Z,0
2016-10-07T04:08:10.586Z,0
2016-10-07T04:08:53.105Z,0
2016-10-07T04:09:35.602Z,0
2016-10-07T04:10:18.237Z,0
2016-10-07T04:11:00.831Z,0
2016-10-07T04:11:43.408Z,0
2016-10-07T04:12:25.915Z,0
2016-10-07T04:13:08.492Z,0
2016-10-07T04:13:51.016Z,0
2016-10-07T04:14:33.575Z,0
2016-10-07T04:15:16.134Z,0
2016-10-07T04:15:58.725Z,0
2016-10-07T04:16:41.253Z,0
2016-10-07T04:17:23.787Z,0
2016-10-07T04:18:06.397Z,0
2016-10-07T04:18:48.943Z,0
2016-10-07T04:19:31.495Z,0
2016-10-07T04:20:14.022Z,0
2016-10-07T04:20:56.622Z,0
2016-10-07T04:21:39.206Z,0
2016-10-07T04:22:21.762Z,0
2016-10-07T04:23:04.356Z,0
2016-10-07T04:23:46.877Z,0
2016-10-07T04:24:29.849Z,0
2016-10-07T04:25:12.654Z,0
2016-10-07T04:25:55.230Z,0
2016-10-07T04:26:37.824Z,0
2016-10-07T04:27:20.360Z,0
2016-10-07T04:28:02.951Z,0
2016-10-07T04:28:45.505Z,0
2016-10-07T04:29:28.090Z,0
2016-10-07T04:30:10.716Z,0
2016-10-07T04:30:53.280Z,0
2016-10-07T04:31:35.886Z,0
2016-10-07T04:32:18.392Z,0
2016-10-07T04:33:01.535Z,0
2016-10-07T04:33:44.107Z,0
2016-10-07T04:34:26.723Z,0
2016-10-07T04:35:09.306Z,0
2016-10-07T04:35:51.904Z,0
2016-10-07T04:36:34.448Z,0
2016-10-07T04:37:17.024Z,0
2016-10-07T04:37:59.609Z,0
2016-10-07T04:38:42.174Z,0
2016-10-07T04:39:24.703Z,0
2016-10-07T04:40:07.249Z,0
2016-10-07T04:40:49.822Z,0
2016-10-07T04:41:32.421Z,0
2016-10-07T04:42:14.953Z,0
2016-10-07T04:42:57.518Z,0
2016-10-07T04:43:40.022Z,0
2016-10-07T04:44:22.593Z,0
2016-10-07T04:45:05.241Z,0
2016-10-07T04:45:47.775Z,0
2016-10-07T04:46:30.357Z,0
2016-10-07T04:47:12.935Z,0
2016-10-07T04:47:55.497Z,0
2016-10-07T04:48:38.064Z,0
2016-10-07T04:49:20.582Z,0
2016-10-07T04:50:03.195Z,0
2016-10-07T04:50:45.715Z,0
2016-10-07T04:51:28.092Z,0
2016-10-07T04:52:10.845Z,0
2016-10-07T04:52:53.389Z,0
2016-10-07T04:53:35.978Z,0
2016-10-07T04:54:18.596Z,0
2016-10-07T04:55:01.143Z,0
2016-10-07T04:55:43.688Z,0
2016-10-07T04:56:26.293Z,0
2016-10-07T04:57:08.894Z,0
2016-10-07T04:57:51.495Z,0
2016-10-07T04:58:34.056Z,0
2016-10-07T04:59:17.354Z,0
2016-10-07T04:59:59.157Z,0
2016-10-07T05:00:41.733Z,0
2016-10-07T05:01:24.861Z,0
2016-10-07T05:02:06.888Z,0
2016-10-07T05:02:49.469Z,0
2016-10-07T05:03:31.872Z,0
2016-10-07T05:04:14.627Z,0
2016-10-07T05:04:57.063Z,0
2016-10-07T05:05:39.715Z,0
2016-10-07T05:06:22.164Z,0
2016-10-07T05:07:04.851Z,0
2016-10-07T05:07:47.411Z,0
2016-10-07T05:08:29.867Z,0
2016-10-07T05:09:12.567Z,0
2016-10-07T05:09:55.097Z,0
2016-10-07T05:10:37.696Z,0
2016-10-07T05:11:20.271Z,0
2016-10-07T05:12:02.839Z,0
2016-10-07T05:12:45.387Z,0
2016-10-07T05:13:27.955Z,0
2016-10-07T05:14:10.501Z,0
2016-10-07T05:14:53.107Z,0
2016-10-07T05:15:35.639Z,0
2016-10-07T05:16:18.130Z,0
2016-10-07T05:17:00.855Z,0
2016-10-07T05:17:43.397Z,0
2016-10-07T05:18:25.903Z,0
2016-10-07T05:19:08.470Z,0
2016-10-07T05:19:51.019Z,0
2016-10-07T05:20:33.611Z,0
2016-10-07T05:21:16.203Z,0
2016-10-07T05:21:58.788Z,0
2016-10-07T05:22:42.110Z,0
2016-10-07T05:23:24.705Z,0
2016-10-07T05:24:07.292Z,0
2016-10-07T05:24:49.921Z,0
2016-10-07T05:25:32.466Z,0
2016-10-07T05:26:15.080Z,0
2016-10-07T05:26:57.639Z,0
2016-10-07T05:27:40.233Z,0
2016-10-07T05:28:22.777Z,0
2016-10-07T05:29:05.416Z,0
2016-10-07T05:29:47.966Z,0
2016-10-07T05:30:30.577Z,0
2016-10-07T05:31:13.133Z,0
2016-10-07T05:31:55.699Z,0
2016-10-07T05:32:38.280Z,0
2016-10-07T05:33:20.815Z,0
2016-10-07T05:34:03.416Z,0
2016-10-07T05:34:46.029Z,0
2016-10-07T05:35:28.624Z,0
2016-10-07T05:36:11.234Z,0
2016-10-07T05:36:53.823Z,0
2016-10-07T05:37:36.417Z,0
2016-10-07T05:38:18.786Z,0
2016-10-07T05:39:01.570Z,0
2016-10-07T05:39:44.110Z,0
2016-10-07T05:40:26.636Z,0
2016-10-07T05:41:09.201Z,0
2016-10-07T05:41:51.582Z,0
2016-10-07T05:42:34.350Z,0
2016-10-07T05:43:16.925Z,0
2016-10-07T05:43:59.531Z,0
2016-10-07T05:44:42.132Z,0
2016-10-07T05:45:24.683Z,0
2016-10-07T05:46:07.240Z,0
2016-10-07T05:46:49.842Z,0
2016-10-07T05:47:32.453Z,0
2016-10-07T05:48:14.998Z,0
2016-10-07T05:48:57.461Z,0
2016-10-07T05:49:40.123Z,0
2016-10-07T05:50:22.743Z,0
2016-10-07T05:51:05.284Z,0
2016-10-07T05:51:47.913Z,0
2016-10-07T05:52:30.464Z,0
2016-10-07T05:53:13.053Z,0
2016-10-07T05:53:55.567Z,0
2016-10-07T05:54:38.161Z,0
2016-10-07T05:55:20.687Z,0
2016-10-07T05:56:03.286Z,0
2016-10-07T05:56:45.848Z,0
2016-10-07T05:57:28.416Z,0
2016-10-07T05:58:10.935Z,0
2016-10-07T05:58:53.669Z,0
2016-10-07T05:59:36.166Z,0
2016-10-07T06:00:18.723Z,0
2016-10-07T06:01:01.129Z,0
2016-10-07T06:01:43.855Z,0
2016-10-07T06:02:26.223Z,0
2016-10-07T06:03:08.955Z,0
2016-10-07T06:03:51.520Z,0
2016-10-07T06:04:34.106Z,0
2016-10-07T06:05:16.647Z,0
2016-10-07T06:05:59.195Z,0
2016-10-07T06:06:41.734Z,0
2016-10-07T06:07:24.287Z,0
2016-10-07T06:08:06.709Z,0
2016-10-07T06:08:49.386Z,0
2016-10-07T06:09:31.796Z,0
2016-10-07T06:10:14.399Z,0
2016-10-07T06:10:57.074Z,0
2016-10-07T06:11:39.583Z,0
2016-10-07T06:12:22.199Z,0
2016-10-07T06:13:04.742Z,0
2016-10-07T06:13:47.346Z,0
2016-10-07T06:14:29.889Z,0
2016-10-07T06:15:12.448Z,0
2016-10-07T06:15:54.981Z,0
2016-10-07T06:16:37.577Z,0
2016-10-07T06:17:20.144Z,0
2016-10-07T06:18:02.731Z,0
2016-10-07T06:18:45.288Z,0
2016-10-07T06:19:27.889Z,0
2016-10-07T06:20:10.459Z,0
2016-10-07T06:20:53.035Z,0
2016-10-07T06:21:35.590Z,0
2016-10-07T06:22:18.150Z,0
2016-10-07T06:23:00.711Z,0
2016-10-07T06:23:43.275Z,0
2016-10-07T06:24:25.840Z,0
2016-10-07T06:25:08.475Z,0
2016-10-07T06:25:51.069Z,0
2016-10-07T06:26:33.551Z,0
2016-10-07T06:27:16.204Z,0
2016-10-07T06:27:58.844Z,0
2016-10-07T06:28:41.434Z,0
2016-10-07T06:29:23.947Z,0
2016-10-07T06:30:06.594Z,0
2016-10-07T06:30:49.173Z,0
2016-10-07T06:31:31.719Z,0
2016-10-07T06:32:14.285Z,0
2016-10-07T06:32:56.852Z,0
2016-10-07T06:33:39.400Z,0
2016-10-07T06:34:21.826Z,0
2016-10-07T06:35:04.508Z,0
2016-10-07T06:35:47.014Z,0
2016-10-07T06:36:29.584Z,0
2016-10-07T06:37:12.209Z,0
2016-10-07T06:37:54.785Z,0
2016-10-07T06:38:37.340Z,0
2016-10-07T06:39:19.926Z,0
2016-10-07T06:40:02.470Z,0
2016-10-07T06:40:45.383Z,0
2016-10-07T06:41:27.885Z,0
2016-10-07T06:42:10.130Z,0
2016-10-07T06:42:52.611Z,0
2016-10-07T06:43:35.278Z,0
2016-10-07T06:44:17.810Z,0
2016-10-07T06:45:00.365Z,0
2016-10-07T06:45:42.897Z,0
2016-10-07T06:46:25.456Z,0
2016-10-07T06:47:08.024Z,0
2016-10-07T06:47:50.585Z,0
2016-10-07T06:48:33.061Z,0
2016-10-07T06:49:15.664Z,0
2016-10-07T06:49:58.272Z,0
2016-10-07T06:50:40.818Z,0
2016-10-07T06:51:23.278Z,0
2016-10-07T06:52:05.831Z,0
2016-10-07T06:52:48.370Z,0
2016-10-07T06:53:30.868Z,0
2016-10-07T06:54:13.568Z,0
2016-10-07T06:54:56.123Z,0
2016-10-07T06:55:38.683Z,0
2016-10-07T06:56:21.261Z,0
2016-10-07T06:57:03.795Z,0
2016-10-07T06:57:46.405Z,0
2016-10-07T06:58:28.852Z,0
2016-10-07T06:59:11.474Z,0
2016-10-07T06:59:54.057Z,0
2016-10-07T07:00:36.543Z,0
2016-10-07T07:01:19.151Z,0
2016-10-07T07:02:01.540Z,0
2016-10-07T07:02:44.292Z,0
2016-10-07T07:03:26.911Z,0
2016-10-07T07:04:09.484Z,0
2016-10-07T07:04:52.087Z,0
2016-10-07T07:05:34.627Z,0
2016-10-07T07:06:17.127Z,0
2016-10-07T07:06:59.790Z,0
2016-10-07T07:07:42.308Z,0
2016-10-07T07:08:24.948Z,0
2016-10-07T07:09:07.504Z,0
2016-10-07T07:09:50.098Z,0
2016-10-07T07:10:32.618Z,0
2016-10-07T07:11:15.245Z,0
2016-10-07T07:11:57.822Z,0
2016-10-07T07:12:40.373Z,0
2016-10-07T07:13:22.811Z,0
2016-10-07T07:14:05.473Z,0
2016-10-07T07:14:48.028Z,0
2016-10-07T07:15:30.595Z,0
2016-10-07T07:16:12.904Z,0
2016-10-07T07:16:55.652Z,0
2016-10-07T07:17:38.213Z,0
2016-10-07T07:18:20.762Z,0
2016-10-07T07:19:03.195Z,0
2016-10-07T07:19:45.832Z,0
2016-10-07T07:20:28.430Z,0
2016-10-07T07:21:10.986Z,0
2016-10-07T07:21:53.583Z,0
2016-10-07T07:22:36.127Z,0
2016-10-07T07:23:18.636Z,0
2016-10-07T07:24:01.258Z,0
2016-10-07T07:24:43.862Z,0
2016-10-07T07:25:26.477Z,0
2016-10-07T07:26:09.055Z,0
2016-10-07T07:26:51.599Z,0
2016-10-07T07:27:34.204Z,0
2016-10-07T07:28:16.762Z,0
2016-10-07T07:28:59.307Z,0
2016-10-07T07:29:41.913Z,0
2016-10-07T07:30:24.442Z,0
2016-10-07T07:31:07.007Z,0
2016-10-07T07:31:49.525Z,0
2016-10-07T07:32:32.042Z,0
2016-10-07T07:33:14.709Z,0
2016-10-07T07:33:57.157Z,0
2016-10-07T07:34:39.800Z,0
2016-10-07T07:35:22.353Z,0
2016-10-07T07:36:04.847Z,0
2016-10-07T07:36:47.593Z,0
2016-10-07T07:37:30.125Z,0
2016-10-07T07:38:12.748Z,0
2016-10-07T07:38:55.356Z,0
2016-10-07T07:39:37.916Z,0
2016-10-07T07:40:20.508Z,0
2016-10-07T07:41:03.106Z,0
2016-10-07T07:41:45.761Z,0
2016-10-07T07:42:28.228Z,0
2016-10-07T07:43:10.839Z,0
2016-10-07T07:43:53.399Z,0
2016-10-07T07:44:35.958Z,0
2016-10-07T07:45:18.558Z,0
2016-10-07T07:46:01.130Z,0
2016-10-07T07:46:43.704Z,0
2016-10-07T07:47:26.231Z,0
2016-10-07T07:48:08.830Z,0
2016-10-07T07:48:51.427Z,0
2016-10-07T07:49:34.018Z,0
2016-10-07T07:50:16.564Z,0
2016-10-07T07:50:59.139Z,0
2016-10-07T07:51:41.755Z,0
2016-10-07T07:52:24.345Z,0
2016-10-07T07:53:06.889Z,0
2016-10-07T07:53:49.511Z,0
2016-10-07T07:54:32.069Z,0
2016-10-07T07:55:14.636Z,0
2016-10-07T07:55:57.247Z,0
2016-10-07T07:56:39.825Z,0
2016-10-07T07:57:22.408Z,0
2016-10-07T07:58:04.988Z,0
2016-10-07T07:58:47.557Z,0
2016-10-07T07:59:30.143Z,0
2016-10-07T08:00:12.590Z,0
2016-10-07T08:00:55.181Z,0
2016-10-07T08:01:37.736Z,0
2016-10-07T08:02:20.271Z,0
2016-10-07T08:03:02.838Z,0
2016-10-07T08:03:45.358Z,0
2016-10-07T08:04:27.944Z,0
2016-10-07T08:05:10.470Z,0
2016-10-07T08:05:53.027Z,0
2016-10-07T08:06:35.613Z,0
2016-10-07T08:07:18.155Z,0
2016-10-07T08:08:00.552Z,0
2016-10-07T08:08:43.382Z,0
2016-10-07T08:09:25.908Z,0
2016-10-07T08:10:08.480Z,0
2016-10-07T08:10:51.076Z,0
2016-10-07T08:11:33.646Z,0
2016-10-07T08:12:16.221Z,0
2016-10-07T08:12:58.884Z,0
2016-10-07T08:13:41.452Z,0
2016-10-07T08:14:24.007Z,0
2016-10-07T08:15:06.587Z,0
2016-10-07T08:15:49.144Z,0
2016-10-07T08:16:31.747Z,0
2016-10-07T08:17:14.269Z,0
2016-10-07T08:17:56.856Z,0
2016-10-07T08:18:39.464Z,0
2016-10-07T08:19:21.988Z,0
2016-10-07T08:20:04.556Z,0
2016-10-07T08:20:47.109Z,0
2016-10-07T08:21:29.637Z,0
2016-10-07T08:22:12.235Z,0
2016-10-07T08:22:54.716Z,0
2016-10-07T08:23:37.364Z,0
2016-10-07T08:24:19.903Z,0
2016-10-07T08:25:02.472Z,0
2016-10-07T08:25:45.061Z,4
2016-10-07T08:26:27.593Z,0
2016-10-07T08:27:10.188Z,0
2016-10-07T08:27:52.776Z,0
2016-10-07T08:28:35.384Z,4
2016-10-07T08:29:17.966Z,4
2016-10-07T08:30:00.545Z,4
2016-10-07T08:30:43.134Z,8
2016-10-07T08:31:25.753Z,4
2016-10-07T08:32:08.249Z,8
2016-10-07T08:32:50.695Z,12
2016-10-07T08:33:33.394Z,12
2016-10-07T08:34:15.926Z,16
2016-10-07T08:34:58.509Z,16
2016-10-07T08:35:41.069Z,20
2016-10-07T08:36:23.631Z,20
2016-10-07T08:37:06.237Z,28
2016-10-07T08:37:48.806Z,28
2016-10-07T08:38:31.448Z,28
2016-10-07T08:39:13.877Z,32
2016-10-07T08:39:56.618Z,32
2016-10-07T08:40:39.104Z,32
2016-10-07T08:41:21.666Z,40
2016-10-07T08:42:04.255Z,48
2016-10-07T08:42:46.878Z,48
2016-10-07T08:43:29.468Z,52
2016-10-07T08:44:12.056Z,48
2016-10-07T08:44:54.663Z,48
2016-10-07T08:45:37.190Z,48
2016-10-07T08:46:19.785Z,44
2016-10-07T08:47:02.334Z,44
2016-10-07T08:47:44.883Z,40
2016-10-07T08:48:27.422Z,44
2016-10-07T08:49:10.048Z,44
2016-10-07T08:49:52.580Z,52
2016-10-07T08:50:35.132Z,56
2016-10-07T08:51:17.694Z,64
2016-10-07T08:52:43.030Z,64
2016-10-07T08:53:25.535Z,68
2016-10-07T08:54:08.136Z,64
2016-10-07T08:54:50.752Z,64
2016-10-07T08:55:33.285Z,60
2016-10-07T08:56:15.724Z,56
2016-10-07T08:56:58.398Z,56
2016-10-07T08:57:40.919Z,60
2016-10-07T08:58:23.439Z,68
2016-10-07T08:59:05.913Z,72
2016-10-07T08:59:48.308Z,76
2016-10-07T09:00:31.080Z,80
2016-10-07T09:01:13.684Z,88
2016-10-07T09:01:56.213Z,100
2016-10-07T09:02:38.770Z,108
2016-10-07T09:03:21.347Z,124
2016-10-07T09:04:03.875Z,132
2016-10-07T09:04:46.377Z,136
2016-10-07T09:05:28.895Z,136
2016-10-07T09:06:11.493Z,132
2016-10-07T09:06:53.893Z,124
2016-10-07T09:07:36.616Z,120
2016-10-07T09:08:19.166Z,124
2016-10-07T09:09:01.585Z,128
2016-10-07T09:09:44.321Z,140
2016-10-07T09:10:26.939Z,148
2016-10-07T09:11:09.551Z,156
2016-10-07T09:11:52.088Z,148
2016-10-07T09:12:34.472Z,136
2016-10-07T09:13:17.279Z,124
2016-10-07T09:13:59.862Z,112
2016-10-07T09:14:42.421Z,108
2016-10-07T09:15:25.006Z,112
2016-10-07T09:16:07.591Z,116
2016-10-07T09:16:50.165Z,124
2016-10-07T09:17:32.709Z,132
2016-10-07T09:18:15.167Z,128
2016-10-07T09:18:57.870Z,128
2016-10-07T09:19:40.410Z,148
2016-10-07T09:20:22.756Z,168
2016-10-07T09:21:05.481Z,204
2016-10-07T09:21:48.065Z,228
2016-10-07T09:22:30.571Z,244
2016-10-07T09:23:13.145Z,256
2016-10-07T09:23:55.714Z,276
2016-10-07T09:24:38.240Z,272
2016-10-07T09:25:20.867Z,288
2016-10-07T09:26:03.338Z,284
2016-10-07T09:26:46.028Z,280
2016-10-07T09:27:28.422Z,276
2016-10-07T09:28:11.161Z,276
2016-10-07T09:28:53.732Z,280
2016-10-07T09:29:36.254Z,320
2016-10-07T09:30:18.792Z,400
2016-10-07T09:31:01.779Z,460
2016-10-07T09:31:43.940Z,504
2016-10-07T09:32:26.504Z,544
2016-10-07T09:33:09.031Z,576
2016-10-07T09:33:51.677Z,608
2016-10-07T09:34:34.207Z,624
2016-10-07T09:35:16.606Z,644
2016-10-07T09:35:59.379Z,668
2016-10-07T09:36:41.946Z,712
2016-10-07T09:37:24.537Z,752
2016-10-07T09:38:07.118Z,792
2016-10-07T09:38:49.748Z,816
2016-10-07T09:39:32.320Z,796
2016-10-07T09:40:15.282Z,748
2016-10-07T09:40:57.427Z,708
2016-10-07T09:41:39.983Z,692
2016-10-07T09:42:22.519Z,688
2016-10-07T09:43:05.082Z,652
2016-10-07T09:43:47.643Z,620
2016-10-07T09:44:30.236Z,612
2016-10-07T09:45:12.790Z,668
2016-10-07T09:45:55.316Z,724
2016-10-07T09:46:37.874Z,760
2016-10-07T09:47:20.441Z,820
2016-10-07T09:48:02.976Z,900
2016-10-07T09:48:45.525Z,960
2016-10-07T09:49:28.111Z,1012
2016-10-07T09:50:10.712Z,1060
2016-10-07T09:50:53.051Z,1092
2016-10-07T09:51:35.757Z,1096
2016-10-07T09:52:18.342Z,1068
2016-10-07T09:53:00.842Z,976
2016-10-07T09:53:43.408Z,892
2016-10-07T09:54:26.012Z,836
2016-10-07T09:55:08.623Z,820
2016-10-07T09:55:51.214Z,804
2016-10-07T09:56:33.915Z,796
2016-10-07T09:57:16.476Z,820
2016-10-07T09:57:59.026Z,884
2016-10-07T09:58:41.604Z,944
2016-10-07T09:59:24.194Z,992
2016-10-07T10:00:06.748Z,1028
2016-10-07T10:00:49.346Z,1052
2016-10-07T10:01:31.951Z,1060
2016-10-07T10:02:14.547Z,1064
2016-10-07T10:02:57.080Z,1056
2016-10-07T10:03:39.598Z,1036
2016-10-07T10:04:22.187Z,1024
2016-10-07T10:05:04.774Z,1028
2016-10-07T10:05:47.330Z,1052
2016-10-07T10:06:29.809Z,1080
2016-10-07T10:07:12.485Z,1104
2016-10-07T10:07:55.073Z,1116
2016-10-07T10:08:37.668Z,1144
2016-10-07T10:09:20.106Z,1228
2016-10-07T10:10:02.742Z,1340
2016-10-07T10:10:45.345Z,1452
2016-10-07T10:11:27.904Z,1520
2016-10-07T10:12:10.483Z,1568
2016-10-07T10:12:53.030Z,1628
2016-10-07T10:13:35.576Z,1632
2016-10-07T10:14:18.133Z,1568
2016-10-07T10:15:00.736Z,1500
2016-10-07T10:15:43.340Z,1472
2016-10-07T10:16:25.957Z,1440
2016-10-07T10:17:08.520Z,1396
2016-10-07T10:17:51.033Z,1376
2016-10-07T10:18:33.485Z,1380
2016-10-07T10:19:16.216Z,1388
2016-10-07T10:19:58.579Z,1452
2016-10-07T10:20:41.363Z,1516
2016-10-07T10:21:23.914Z,1612
2016-10-07T10:22:06.537Z,1796
2016-10-07T10:22:49.072Z,1924